Time;durP1;ratioP1;P1;durP2;ratioP2;P2;SDS_P1;SDS_P2;PMS_P1;PMS_P2;Temp;Humidity;BMP_temperature;BMP_pressure;BME280_temperature;BME280_humidity;BME280_pressure;Samples;Min_cycle;Max_cycle;Signal;HPM_P1;HPM_P2
2022/04/21 00:00:05;;;;;;;1.02;0.80;;;;;;;3.87;100.00;100688.44;5102811;28;20549;-46
2022/04/21 00:02:31;;;;;;;3.20;1.02;;;;;;;3.85;100.00;100680.72;5100666;28;20121;-47
2022/04/21 00:04:57;;;;;;;1.90;0.77;;;;;;;3.81;100.00;100681.16;5111473;28;20015;-46
2022/04/21 00:07:23;;;;;;;3.78;1.50;;;;;;;3.74;100.00;100686.13;5111047;28;20034;-47
2022/04/21 00:09:49;;;;;;;2.65;1.63;;;;;;;3.62;100.00;100690.72;5100620;28;20039;-52
2022/04/21 00:12:14;;;;;;;3.03;0.68;;;;;;;3.60;100.00;100682.16;5107916;27;20039;-47
2022/04/21 00:14:40;;;;;;;3.58;0.95;;;;;;;3.54;100.00;100677.47;5113930;28;20040;-50
2022/04/21 00:17:08;;;;;;;3.15;2.15;;;;;;;3.54;100.00;100676.63;5109502;27;20036;-46
2022/04/21 00:19:36;;;;;;;1.95;0.88;;;;;;;3.50;100.00;100684.78;5105785;28;20032;-47
2022/04/21 00:24:46;;;;;;;2.08;0.98;;;;;;;3.40;100.00;100670.84;5109848;28;20038;-47
2022/04/21 00:27:12;;;;;;;3.38;1.25;;;;;;;3.37;100.00;100670.31;5114828;27;20071;-48
2022/04/21 00:29:38;;;;;;;1.98;1.13;;;;;;;3.29;100.00;100665.78;5098433;28;20043;-51
2022/04/21 00:32:03;;;;;;;5.10;1.38;;;;;;;3.29;100.00;100668.41;5097355;28;20065;-47
2022/04/21 00:34:31;;;;;;;2.05;1.02;;;;;;;3.24;100.00;100660.94;5094426;28;20376;-51
2022/04/21 00:36:56;;;;;;;5.88;1.70;;;;;;;3.21;100.00;100656.00;5095760;27;20085;-45
2022/04/21 00:39:21;;;;;;;3.08;1.17;;;;;;;3.19;100.00;100662.34;5107521;27;20023;-51
2022/04/21 00:41:47;;;;;;;2.97;2.20;;;;;;;3.21;100.00;100661.22;5105787;28;20023;-45
2022/04/21 00:44:12;;;;;;;2.22;1.38;;;;;;;3.15;100.00;100655.69;5108094;28;20028;-47
2022/04/21 00:46:38;;;;;;;4.05;2.05;;;;;;;3.10;100.00;100655.28;5110471;28;20112;-47
2022/04/21 00:49:05;;;;;;;1.60;1.00;;;;;;;3.09;100.00;100656.25;5112278;27;20509;-48
2022/04/21 00:51:31;;;;;;;1.65;1.40;;;;;;;3.05;100.00;100650.50;5108004;28;20092;-51
2022/04/21 00:53:58;;;;;;;4.53;2.22;;;;;;;3.02;100.00;100637.63;5106321;28;20020;-49
2022/04/21 00:56:25;;;;;;;3.60;1.70;;;;;;;3.00;100.00;100643.03;5106157;28;20419;-48
2022/04/21 00:58:50;;;;;;;2.30;1.13;;;;;;;2.95;100.00;100640.00;5110563;27;20038;-51
2022/04/21 01:04:01;;;;;;;3.83;1.92;;;;;;;2.91;100.00;100641.22;5108112;28;20035;-45
2022/04/21 01:06:26;;;;;;;3.92;1.20;;;;;;;2.90;100.00;100634.34;5102984;28;20275;-46
2022/04/21 01:08:52;;;;;;;1.67;1.35;;;;;;;2.94;100.00;100638.31;5105149;28;20534;-46
2022/04/21 01:11:18;;;;;;;3.42;1.40;;;;;;;2.98;100.00;100628.41;5102782;27;20437;-46
2022/04/21 01:13:43;;;;;;;2.20;2.00;;;;;;;3.05;100.00;100630.34;5107212;28;20461;-47
2022/04/21 01:16:09;;;;;;;5.60;1.33;;;;;;;3.04;100.00;100623.44;5103995;28;20126;-47
2022/04/21 01:18:34;;;;;;;2.53;1.58;;;;;;;3.09;100.00;100624.81;5109124;28;20031;-46
2022/04/21 01:21:00;;;;;;;5.72;2.20;;;;;;;3.13;100.00;100627.03;5104088;28;20353;-48
2022/04/21 01:23:26;;;;;;;4.90;2.60;;;;;;;3.16;100.00;100618.06;5106418;28;20031;-48
2022/04/21 01:25:52;;;;;;;1.10;0.98;;;;;;;3.20;100.00;100617.66;5106289;28;20075;-48
2022/04/21 01:28:18;;;;;;;4.47;2.17;;;;;;;3.31;100.00;100627.16;5105698;28;20487;-47
2022/04/21 01:30:44;;;;;;;2.58;1.95;;;;;;;3.33;100.00;100629.63;5105773;28;20031;-46
2022/04/21 01:33:09;;;;;;;4.10;1.95;;;;;;;3.34;100.00;100610.31;5098463;28;20036;-46
2022/04/21 01:35:38;;;;;;;1.85;1.50;;;;;;;3.42;100.00;100621.75;5109507;28;20055;-46
2022/04/21 01:43:31;;;;;;;6.13;2.45;;;;;;;3.49;100.00;100614.16;5103454;28;20055;-46
2022/04/21 01:45:56;;;;;;;2.72;2.13;;;;;;;3.45;100.00;100605.72;5095555;28;20028;-46
2022/04/21 01:48:22;;;;;;;2.75;1.88;;;;;;;3.63;100.00;100613.69;5100783;28;20028;-48
2022/04/21 01:50:47;;;;;;;4.57;3.10;;;;;;;3.68;100.00;100606.22;5105105;28;20031;-48
2022/04/21 01:53:12;;;;;;;7.88;2.45;;;;;;;3.71;100.00;100605.94;5103046;28;20069;-50
2022/04/21 01:55:38;;;;;;;8.02;2.35;;;;;;;3.82;100.00;100607.56;5093797;28;20040;-47
2022/04/21 01:58:03;;;;;;;5.68;2.67;;;;;;;3.82;100.00;100604.09;5101914;28;20036;-47
2022/04/21 02:00:29;;;;;;;3.15;2.90;;;;;;;3.81;100.00;100598.03;5105554;28;20024;-47
2022/04/21 02:02:54;;;;;;;2.85;2.05;;;;;;;4.04;100.00;100598.47;5104826;28;20024;-46
2022/04/21 02:05:20;;;;;;;2.97;2.08;;;;;;;4.14;100.00;100596.63;5108597;28;20391;-49
2022/04/21 02:07:46;;;;;;;1.90;1.73;;;;;;;4.25;100.00;100594.78;5099898;28;20032;-48
2022/04/21 02:10:13;;;;;;;17.92;2.95;;;;;;;4.33;100.00;100589.63;5103165;28;20024;-46
2022/04/21 02:12:39;;;;;;;6.80;1.70;;;;;;;4.37;100.00;100591.81;5106754;28;20027;-48
2022/04/21 02:15:06;;;;;;;10.40;2.30;;;;;;;4.43;100.00;100590.38;5110793;28;20031;-47
2022/04/21 02:17:33;;;;;;;8.80;2.38;;;;;;;4.49;100.00;100587.19;5094495;28;20103;-46
2022/04/21 02:19:59;;;;;;;6.22;2.75;;;;;;;4.54;100.00;100587.56;5102348;28;20047;-47
2022/04/21 02:22:25;;;;;;;5.20;2.15;;;;;;;4.56;100.00;100596.09;5104075;28;20491;-49
2022/04/21 02:24:50;;;;;;;4.50;1.73;;;;;;;4.50;100.00;100580.13;5098040;28;20036;-46
2022/04/21 02:27:15;;;;;;;4.25;2.40;;;;;;;4.54;100.00;100587.56;5097882;28;20042;-46
2022/04/21 02:29:41;;;;;;;8.38;3.60;;;;;;;4.51;100.00;100589.66;5108873;28;20531;-50
2022/04/21 02:32:06;;;;;;;3.05;1.88;;;;;;;4.39;100.00;100589.06;5089550;28;20393;-46
2022/04/21 02:34:32;;;;;;;4.05;2.75;;;;;;;4.28;100.00;100582.19;5094379;28;20178;-47
2022/04/21 02:36:57;;;;;;;7.18;2.10;;;;;;;4.19;100.00;100587.50;5096447;28;20030;-48
2022/04/21 02:39:24;;;;;;;2.20;1.65;;;;;;;4.21;100.00;100588.16;5105885;28;20042;-45
2022/04/21 02:41:49;;;;;;;3.30;1.80;;;;;;;4.32;100.00;100583.56;5091979;28;20028;-49
2022/04/21 02:44:14;;;;;;;7.25;3.35;;;;;;;4.53;100.00;100588.53;5108839;28;20042;-50
2022/04/21 02:46:40;;;;;;;6.45;2.63;;;;;;;4.65;100.00;100577.81;5094569;28;20020;-48
2022/04/21 02:49:05;;;;;;;6.53;2.63;;;;;;;4.67;100.00;100579.28;5113871;28;20024;-48
2022/04/21 02:51:31;;;;;;;9.70;2.75;;;;;;;4.74;100.00;100582.97;5100668;28;20020;-47
2022/04/21 02:59:26;;;;;;;9.45;2.47;;;;;;;4.71;100.00;100574.56;5098199;28;20167;-46
2022/04/21 03:01:51;;;;;;;4.30;1.80;;;;;;;4.75;100.00;100574.13;5095023;28;20032;-49
2022/04/21 03:04:17;;;;;;;7.93;2.45;;;;;;;4.75;100.00;100568.03;5099203;28;20031;-48
2022/04/21 03:06:42;;;;;;;6.30;2.58;;;;;;;4.72;100.00;100574.41;5103413;28;20039;-52
2022/04/21 03:09:07;;;;;;;3.78;2.17;;;;;;;4.70;100.00;100575.53;5109185;28;20506;-49
2022/04/21 03:11:33;;;;;;;5.88;3.90;;;;;;;4.76;100.00;100573.16;5092580;28;20024;-46
2022/04/21 03:13:58;;;;;;;4.28;2.28;;;;;;;4.74;100.00;100569.03;5102152;28;20155;-47
2022/04/21 03:16:23;;;;;;;9.15;2.63;;;;;;;4.76;100.00;100569.69;5100445;28;20025;-48
2022/04/21 03:18:49;;;;;;;8.82;2.28;;;;;;;4.70;100.00;100570.28;5102447;28;20019;-53
2022/04/21 03:26:42;;;;;;;4.15;1.90;;;;;;;4.50;100.00;100570.44;5102113;28;20502;-46
2022/04/21 03:29:07;;;;;;;3.58;1.50;;;;;;;4.45;100.00;100572.69;5103402;28;20110;-48
2022/04/21 03:31:33;;;;;;;7.03;2.67;;;;;;;4.38;100.00;100569.81;5097758;28;20027;-47
2022/04/21 03:33:58;;;;;;;8.55;2.22;;;;;;;4.42;100.00;100572.19;5098020;28;20044;-47
2022/04/21 03:36:23;;;;;;;4.32;2.35;;;;;;;4.48;100.00;100569.75;5100073;28;20032;-47
2022/04/21 03:38:49;;;;;;;4.20;2.28;;;;;;;4.51;100.00;100574.72;5100540;28;20046;-46
2022/04/21 03:41:14;;;;;;;4.50;2.42;;;;;;;4.58;100.00;100567.06;5091897;28;20113;-48
2022/04/21 03:43:40;;;;;;;8.80;2.72;;;;;;;4.59;100.00;100569.56;5096737;28;20039;-47
2022/04/21 03:46:05;;;;;;;3.60;2.78;;;;;;;4.61;100.00;100566.78;5114175;28;20039;-46
2022/04/21 03:48:31;;;;;;;10.75;2.83;;;;;;;4.57;100.00;100574.13;5104322;28;20051;-49
2022/04/21 03:50:56;;;;;;;8.52;2.83;;;;;;;4.64;100.00;100566.47;5095512;28;20028;-48
2022/04/21 03:53:22;;;;;;;6.22;3.38;;;;;;;4.59;100.00;100560.84;5095062;28;20042;-49
2022/04/21 03:55:47;;;;;;;7.35;2.65;;;;;;;4.60;100.00;100554.63;5104295;28;20935;-51
2022/04/21 03:58:13;;;;;;;13.48;3.25;;;;;;;4.63;100.00;100559.56;5094371;28;20039;-51
2022/04/21 04:00:38;;;;;;;8.18;3.25;;;;;;;4.67;100.00;100562.72;5101279;28;20027;-53
2022/04/21 04:03:03;;;;;;;12.40;5.00;;;;;;;4.70;100.00;100563.25;5104297;28;20047;-47
2022/04/21 04:05:29;;;;;;;11.02;3.15;;;;;;;4.69;100.00;100566.03;5104573;28;20028;-46
2022/04/21 04:10:53;;;;;;;6.32;2.85;;;;;;;4.71;100.00;100566.69;5098967;28;20495;-46
2022/04/21 04:13:20;;;;;;;5.97;3.47;;;;;;;4.72;100.00;100563.09;5101165;28;20733;-49
2022/04/21 04:15:48;;;;;;;10.30;4.40;;;;;;;4.70;100.00;100567.66;5096504;28;20123;-47
2022/04/21 04:18:15;;;;;;;16.40;5.57;;;;;;;4.76;100.00;100567.06;5099687;28;20038;-46
2022/04/21 04:20:41;;;;;;;6.30;4.15;;;;;;;4.80;100.00;100571.88;5096713;28;20494;-50
2022/04/21 04:23:06;;;;;;;11.20;4.65;;;;;;;4.79;100.00;100575.47;5100112;28;20031;-51
2022/04/21 04:25:31;;;;;;;16.52;4.85;;;;;;;4.74;100.00;100572.47;5103896;28;20484;-47
2022/04/21 04:27:57;;;;;;;7.30;3.53;;;;;;;4.73;100.00;100567.38;5100787;28;20111;-46
2022/04/21 04:30:22;;;;;;;14.60;4.78;;;;;;;4.73;100.00;100570.81;5100596;28;20488;-48
2022/04/21 04:32:48;;;;;;;8.40;4.38;;;;;;;4.71;100.00;100561.44;5086707;28;20082;-47
2022/04/21 04:35:13;;;;;;;12.75;6.03;;;;;;;4.57;100.00;100566.25;5100670;28;20122;-47
2022/04/21 04:37:39;;;;;;;5.95;4.70;;;;;;;4.48;100.00;100566.31;5100725;28;20052;-49
2022/04/21 04:40:05;;;;;;;5.32;3.45;;;;;;;4.47;100.00;100564.69;5097389;28;20024;-48
2022/04/21 04:42:30;;;;;;;10.98;4.05;;;;;;;4.44;100.00;100565.81;5099461;28;20032;-47
2022/04/21 04:47:41;;;;;;;13.82;5.03;;;;;;;4.38;100.00;100563.75;5103971;28;20676;-46
2022/04/21 04:50:07;;;;;;;9.13;4.30;;;;;;;4.30;100.00;100568.94;5103033;28;20036;-47
2022/04/21 04:52:33;;;;;;;17.48;6.10;;;;;;;4.17;100.00;100569.28;5097220;28;20043;-47
2022/04/21 04:54:58;;;;;;;7.53;4.75;;;;;;;4.10;100.00;100569.03;5089270;28;20030;-47
2022/04/21 04:57:24;;;;;;;10.50;4.90;;;;;;;4.03;100.00;100564.53;5103691;28;20024;-47
2022/04/21 04:59:49;;;;;;;14.27;7.35;;;;;;;4.00;100.00;100567.44;5101864;28;20081;-46
2022/04/21 05:02:15;;;;;;;8.85;4.25;;;;;;;4.10;100.00;100569.03;5104025;28;20089;-48
2022/04/21 05:04:40;;;;;;;8.85;5.30;;;;;;;4.19;100.00;100567.34;5098770;28;20038;-46
2022/04/21 05:07:05;;;;;;;11.48;5.97;;;;;;;4.23;100.00;100570.47;5097875;28;20111;-50
2022/04/21 05:09:31;;;;;;;20.77;7.53;;;;;;;4.17;100.00;100574.53;5104428;28;20374;-47
2022/04/21 05:11:57;;;;;;;11.27;5.88;;;;;;;4.22;100.00;100568.84;5097375;28;20051;-47
2022/04/21 05:14:24;;;;;;;12.10;5.68;;;;;;;4.31;100.00;100565.31;5104571;28;20422;-47
2022/04/21 05:16:50;;;;;;;11.32;5.45;;;;;;;4.35;100.00;100571.94;5103741;28;20024;-48
2022/04/21 05:19:19;;;;;;;10.45;6.65;;;;;;;4.35;100.00;100577.19;5105611;28;20046;-48
2022/04/21 05:21:45;;;;;;;8.52;6.55;;;;;;;4.39;100.00;100560.19;5101708;28;20135;-48
2022/04/21 05:24:11;;;;;;;11.93;6.35;;;;;;;4.43;100.00;100564.13;5107091;28;20023;-49
2022/04/21 05:26:38;;;;;;;14.10;5.90;;;;;;;4.43;100.00;100561.50;5102311;28;20020;-48
2022/04/21 05:31:56;;;;;;;20.70;7.82;;;;;;;4.48;100.00;100568.94;5096672;28;20663;-51
2022/04/21 05:34:22;;;;;;;17.13;5.60;;;;;;;4.56;100.00;100569.84;5093333;28;20084;-48
2022/04/21 05:36:48;;;;;;;11.98;6.20;;;;;;;4.65;100.00;100564.69;5100286;28;20020;-46
2022/04/21 05:39:13;;;;;;;14.32;6.78;;;;;;;4.66;100.00;100567.16;5094963;28;20431;-48
2022/04/21 05:41:39;;;;;;;15.02;7.40;;;;;;;4.69;100.00;100569.47;5103647;28;20468;-49
2022/04/21 05:44:06;;;;;;;17.63;7.40;;;;;;;4.72;100.00;100576.22;5105118;28;20165;-47
2022/04/21 05:46:31;;;;;;;23.77;8.15;;;;;;;4.75;100.00;100575.91;5097225;28;20020;-46
2022/04/21 05:48:57;;;;;;;11.05;5.43;;;;;;;4.76;100.00;100574.94;5097088;28;20051;-46
2022/04/21 05:51:23;;;;;;;32.08;6.75;;;;;;;4.77;100.00;100577.41;5100604;28;20468;-46
2022/04/21 05:53:49;;;;;;;15.95;6.50;;;;;;;4.82;100.00;100572.53;5098266;28;20031;-46
2022/04/21 05:56:15;;;;;;;15.57;7.68;;;;;;;4.90;100.00;100581.47;5094877;28;20035;-48
2022/04/21 05:58:41;;;;;;;17.10;8.20;;;;;;;5.03;100.00;100580.13;5106753;28;20027;-48
2022/04/21 06:01:08;;;;;;;14.57;7.43;;;;;;;5.12;100.00;100586.25;5104791;28;20468;-46
2022/04/21 06:03:37;;;;;;;16.40;6.90;;;;;;;5.17;100.00;100578.72;5108985;28;20027;-51
2022/04/21 06:06:06;;;;;;;16.02;7.32;;;;;;;5.29;100.00;100581.09;5103611;28;20028;-48
2022/04/21 06:08:31;;;;;;;11.90;8.18;;;;;;;5.38;100.00;100567.03;5098570;28;20601;-46
2022/04/21 06:10:57;;;;;;;20.15;9.15;;;;;;;5.46;100.00;100562.63;5098197;28;20061;-49
2022/04/21 06:13:24;;;;;;;20.35;6.82;;;;;;;5.57;100.00;100566.00;5100849;28;20036;-47
2022/04/21 06:15:50;;;;;;;16.10;8.95;;;;;;;5.63;100.00;100562.75;5105376;28;20039;-47
2022/04/21 06:18:15;;;;;;;13.68;7.75;;;;;;;5.69;100.00;100562.13;5102810;28;20040;-47
2022/04/21 06:20:40;;;;;;;12.63;6.72;;;;;;;5.76;100.00;100565.78;5100266;28;20495;-46
2022/04/21 06:23:06;;;;;;;11.20;7.40;;;;;;;5.86;100.00;100563.84;5099985;28;20035;-46
2022/04/21 06:25:32;;;;;;;16.77;7.95;;;;;;;5.95;100.00;100566.53;5102833;28;20124;-46
2022/04/21 06:27:57;;;;;;;18.40;7.10;;;;;;;5.95;100.00;100567.34;5105186;28;20031;-49
2022/04/21 06:30:25;;;;;;;15.68;8.30;;;;;;;6.02;100.00;100564.91;5094856;28;20028;-47
2022/04/21 06:32:53;;;;;;;17.63;7.30;;;;;;;6.10;100.00;100567.59;5095855;28;20035;-47
2022/04/21 06:35:18;;;;;;;11.90;4.70;;;;;;;6.09;100.00;100565.91;5101899;28;20468;-49
2022/04/21 06:37:44;;;;;;;12.85;7.70;;;;;;;6.13;100.00;100562.00;5100968;28;20035;-49
2022/04/21 06:40:09;;;;;;;17.13;7.38;;;;;;;6.26;100.00;100564.97;5096418;28;20036;-49
2022/04/21 06:42:38;;;;;;;13.23;6.05;;;;;;;6.37;100.00;100563.03;5094969;28;20039;-47
2022/04/21 06:48:07;;;;;;;15.40;5.95;;;;;;;6.48;100.00;100562.72;5095277;28;20042;-48
2022/04/21 06:50:37;;;;;;;13.90;6.75;;;;;;;6.67;100.00;100564.25;5091677;28;20502;-47
2022/04/21 06:53:05;;;;;;;12.18;6.43;;;;;;;6.76;100.00;100560.59;5096001;28;20028;-46
2022/04/21 06:55:31;;;;;;;17.63;7.72;;;;;;;6.78;100.00;100561.28;5094678;28;20016;-46
2022/04/21 06:57:56;;;;;;;19.30;7.00;;;;;;;6.96;100.00;100563.75;5099070;28;20032;-46
2022/04/21 07:00:24;;;;;;;12.18;6.57;;;;;;;7.11;100.00;100564.72;5095715;28;20469;-48
2022/04/21 07:02:57;;;;;;;11.30;7.05;;;;;;;7.28;100.00;100556.78;5089658;28;20040;-50
2022/04/21 07:05:24;;;;;;;11.00;7.05;;;;;;;7.43;100.00;100560.38;5094972;28;20093;-48
2022/04/21 07:07:50;;;;;;;14.68;7.50;;;;;;;7.59;100.00;100555.09;5092855;28;20032;-47
2022/04/21 07:10:18;;;;;;;15.90;8.40;;;;;;;7.76;100.00;100560.31;5093081;28;20044;-46
2022/04/21 07:12:43;;;;;;;13.70;9.02;;;;;;;7.92;100.00;100549.66;5101883;28;20457;-48
2022/04/21 07:15:11;;;;;;;12.50;8.18;;;;;;;8.05;100.00;100549.13;5104290;28;20084;-50
2022/04/21 07:17:37;;;;;;;12.45;6.45;;;;;;;8.13;100.00;100548.25;5097083;28;20375;-47
2022/04/21 07:20:05;;;;;;;10.52;6.88;;;;;;;8.24;100.00;100548.69;5106120;28;20422;-49
2022/04/21 07:22:31;;;;;;;13.48;7.90;;;;;;;8.43;100.00;100550.09;5101411;28;20032;-48
2022/04/21 07:24:58;;;;;;;12.73;6.85;;;;;;;8.67;100.00;100541.19;5101224;28;20464;-48
2022/04/21 07:27:24;;;;;;;13.82;6.75;;;;;;;8.81;100.00;100546.69;5102072;28;20031;-51
2022/04/21 07:29:50;;;;;;;14.05;7.43;;;;;;;8.91;100.00;100537.50;5107403;28;20027;-47
2022/04/21 07:32:15;;;;;;;16.55;8.30;;;;;;;8.99;100.00;100538.44;5083563;28;20118;-46
2022/04/21 07:34:41;;;;;;;12.35;6.63;;;;;;;9.14;100.00;100531.34;5101078;28;20024;-49
2022/04/21 07:37:09;;;;;;;15.02;7.05;;;;;;;9.32;100.00;100536.28;5101589;28;20035;-48
2022/04/21 07:39:35;;;;;;;19.25;8.00;;;;;;;9.51;100.00;100527.81;5107673;28;20028;-51
2022/04/21 07:42:01;;;;;;;19.05;7.72;;;;;;;9.65;100.00;100528.81;5102648;28;20376;-49
2022/04/21 07:44:27;;;;;;;12.95;7.45;;;;;;;9.77;100.00;100523.88;5081062;28;20031;-47
2022/04/21 07:46:53;;;;;;;14.45;8.30;;;;;;;9.94;100.00;100533.25;5101693;28;20019;-46
2022/04/21 07:54:47;;;;;;;12.00;6.13;;;;;;;10.50;100.00;100524.69;5098672;28;20097;-46
2022/04/21 07:57:12;;;;;;;12.13;6.75;;;;;;;10.57;100.00;100511.53;5102271;28;20020;-46
2022/04/21 07:59:38;;;;;;;12.30;5.82;;;;;;;10.72;100.00;100519.41;5099497;28;20110;-49
2022/04/21 08:02:04;;;;;;;9.35;5.15;;;;;;;10.87;100.00;100525.47;5106716;28;20027;-46
2022/04/21 08:04:32;;;;;;;13.68;5.60;;;;;;;10.93;100.00;100519.38;5094923;28;20024;-47
2022/04/21 08:06:58;;;;;;;9.63;6.07;;;;;;;11.06;100.00;100510.69;5090822;28;20020;-50
2022/04/21 08:09:24;;;;;;;8.90;5.53;;;;;;;11.13;100.00;100508.91;5097379;28;20514;-47
2022/04/21 08:11:49;;;;;;;10.00;5.20;;;;;;;11.24;100.00;100499.59;5084599;28;20076;-49
2022/04/21 08:14:16;;;;;;;11.73;5.28;;;;;;;11.44;100.00;100503.19;5091409;28;20032;-47
2022/04/21 08:16:42;;;;;;;11.38;5.68;;;;;;;11.63;100.00;100506.13;5091180;28;20434;-47
2022/04/21 08:19:08;;;;;;;15.00;4.47;;;;;;;11.79;100.00;100508.44;5092473;28;20054;-48
2022/04/21 08:21:33;;;;;;;13.02;5.22;;;;;;;11.92;100.00;100499.75;5093761;28;20489;-48
2022/04/21 08:32:33;;;;;;;11.43;6.45;;;;;;;12.02;100.00;100502.84;5094201;28;20384;-47
2022/04/21 08:34:57;;;;;;;6.95;4.18;;;;;;;12.59;100.00;100501.50;5097060;28;20035;-47
2022/04/21 08:37:22;;;;;;;7.20;5.95;;;;;;;12.75;100.00;100508.28;5100438;28;20028;-49
2022/04/21 08:39:48;;;;;;;7.10;4.90;;;;;;;12.90;100.00;100507.25;5095748;28;20022;-48
2022/04/21 08:42:15;;;;;;;10.30;4.03;;;;;;;12.94;100.00;100503.97;5109172;28;20027;-46
2022/04/21 08:44:43;;;;;;;14.50;5.85;;;;;;;13.04;100.00;100499.06;5095822;28;20089;-48
2022/04/21 08:47:10;;;;;;;10.98;4.90;;;;;;;13.09;100.00;100512.56;5090155;28;20028;-52
2022/04/21 08:49:39;;;;;;;10.25;5.60;;;;;;;13.18;100.00;100510.50;5101596;28;20507;-46
2022/04/21 08:52:05;;;;;;;12.02;6.13;;;;;;;13.26;100.00;100504.97;5104075;28;20066;-48
2022/04/21 08:54:31;;;;;;;8.52;4.80;;;;;;;13.36;100.00;100495.75;5097266;28;20047;-48
2022/04/21 08:56:57;;;;;;;15.88;6.13;;;;;;;13.38;100.00;100510.50;5099610;28;20541;-50
2022/04/21 08:59:23;;;;;;;13.43;6.32;;;;;;;13.40;100.00;100511.13;5099466;28;20182;-48
2022/04/21 09:01:49;;;;;;;6.95;4.68;;;;;;;13.53;100.00;100512.94;5103686;28;20622;-49
2022/04/21 09:04:14;;;;;;;11.00;5.10;;;;;;;13.70;100.00;100510.59;5100754;28;20035;-50
2022/04/21 09:06:40;;;;;;;7.50;4.63;;;;;;;13.91;100.00;100507.66;5098365;28;20036;-51
2022/04/21 09:09:13;;;;;;;10.98;5.28;;;;;;;14.05;100.00;100507.59;5104687;28;20259;-50
2022/04/21 09:11:39;;;;;;;8.50;4.28;;;;;;;14.13;100.00;100505.50;5100215;28;20027;-47
2022/04/21 09:14:04;;;;;;;8.93;4.75;;;;;;;14.30;100.00;100512.97;5098694;28;20544;-45
2022/04/21 09:16:34;;;;;;;10.35;4.55;;;;;;;14.38;100.00;100502.88;5097811;28;20069;-47
2022/04/21 09:19:02;;;;;;;7.72;5.07;;;;;;;14.49;100.00;100508.56;5104480;28;20371;-49
2022/04/21 09:21:38;;;;;;;7.95;5.15;;;;;;;14.61;100.00;100499.66;5107819;28;20043;-49
2022/04/21 09:24:25;;;;;;;12.05;6.47;;;;;;;14.78;100.00;100499.13;5096793;28;20036;-49
2022/04/21 09:26:52;;;;;;;11.27;5.75;;;;;;;14.81;100.00;100488.00;5098443;28;20492;-50
2022/04/21 09:29:30;;;;;;;7.75;4.82;;;;;;;14.86;100.00;100493.50;5104519;28;20487;-47
2022/04/21 09:32:04;;;;;;;12.25;5.20;;;;;;;14.71;100.00;100493.81;5097782;28;20101;-47
2022/04/21 09:34:29;;;;;;;5.68;3.97;;;;;;;14.78;100.00;100499.94;5102512;28;20050;-48
2022/04/21 09:36:58;;;;;;;10.80;4.30;;;;;;;14.97;100.00;100491.97;5078636;28;20535;-50
2022/04/21 09:39:24;;;;;;;7.72;4.72;;;;;;;15.06;100.00;100485.31;5102337;28;20034;-47
2022/04/21 09:41:54;;;;;;;7.60;4.25;;;;;;;15.28;100.00;100485.69;5094547;28;20024;-46
2022/04/21 09:47:05;;;;;;;11.00;4.65;;;;;;;15.61;100.00;100489.88;5112373;28;20054;-48
2022/04/21 09:49:43;;;;;;;8.13;3.22;;;;;;;15.59;100.00;100483.91;5098927;28;20145;-48
2022/04/21 09:52:10;;;;;;;5.70;3.67;;;;;;;15.69;100.00;100486.91;5101646;28;20059;-47
2022/04/21 09:54:36;;;;;;;6.53;2.92;;;;;;;15.77;100.00;100488.47;5100541;28;20067;-48
2022/04/21 09:57:02;;;;;;;7.80;3.85;;;;;;;15.81;100.00;100484.31;5101553;28;20067;-49
2022/04/21 09:59:28;;;;;;;8.40;2.90;;;;;;;15.87;100.00;100478.88;5103454;28;20548;-49
2022/04/21 10:01:54;;;;;;;6.65;2.42;;;;;;;16.02;100.00;100493.69;5100489;28;20102;-48
2022/04/21 10:04:20;;;;;;;4.95;2.72;;;;;;;16.08;100.00;100476.75;5092879;28;20058;-51
2022/04/21 10:06:46;;;;;;;5.68;2.47;;;;;;;16.27;100.00;100472.97;5105794;28;20048;-51
2022/04/21 10:09:14;;;;;;;5.43;1.58;;;;;;;16.48;100.00;100476.16;5094232;28;20027;-51
2022/04/21 10:11:42;;;;;;;3.63;1.95;;;;;;;16.59;100.00;100467.31;5104331;28;20131;-47
2022/04/21 10:14:12;;;;;;;3.50;2.28;;;;;;;16.70;100.00;100461.19;5098172;28;20686;-51
2022/04/21 10:16:42;;;;;;;1.52;1.27;;;;;;;16.95;100.00;100463.66;5091648;28;20143;-49
2022/04/21 10:19:09;;;;;;;2.17;1.60;;;;;;;17.19;100.00;100455.59;5097648;28;20106;-53
2022/04/21 10:21:39;;;;;;;2.60;2.15;;;;;;;17.19;100.00;100463.63;5099710;28;20028;-49
2022/04/21 10:24:06;;;;;;;3.35;1.55;;;;;;;17.23;100.00;100446.03;5103540;28;20082;-47
2022/04/21 10:26:35;;;;;;;4.97;1.15;;;;;;;17.14;100.00;100448.28;5100348;28;20020;-48
2022/04/21 10:29:13;;;;;;;1.27;1.17;;;;;;;17.32;100.00;100455.34;5096428;28;20035;-50
2022/04/21 10:32:03;;;;;;;3.50;1.30;;;;;;;17.25;92.43;100445.81;5078526;28;20084;-49
2022/04/21 10:34:43;;;;;;;2.80;1.08;;;;;;;17.21;97.51;100438.22;5097334;28;20110;-48
2022/04/21 10:37:14;;;;;;;3.85;1.48;;;;;;;17.34;100.00;100453.22;5097206;28;20446;-50
2022/04/21 10:40:00;;;;;;;1.70;1.60;;;;;;;17.54;97.53;100454.72;5097931;28;20030;-48
2022/04/21 10:42:25;;;;;;;3.95;1.38;;;;;;;17.37;89.90;100451.94;5094029;28;20098;-49
2022/04/21 10:44:52;;;;;;;4.05;2.28;;;;;;;17.34;93.49;100447.06;5098510;28;20452;-48
2022/04/21 10:47:34;;;;;;;4.57;1.80;;;;;;;17.37;94.32;100441.22;5092172;28;20028;-51
2022/04/21 10:50:01;;;;;;;2.95;1.63;;;;;;;17.44;92.50;100442.72;5099338;28;20615;-49
2022/04/21 10:57:50;;;;;;;4.95;1.15;;;;;;;17.79;90.97;100441.84;5102270;28;20046;-54
2022/04/21 11:00:24;;;;;;;1.75;1.27;;;;;;;17.98;91.52;100449.69;5093899;28;20078;-50
2022/04/21 11:03:06;;;;;;;5.50;1.95;;;;;;;18.05;87.62;100451.16;5102463;28;20042;-50
2022/04/21 11:05:36;;;;;;;2.92;1.85;;;;;;;17.93;92.62;100458.44;5104902;28;20035;-50
2022/04/21 11:08:04;;;;;;;3.63;2.35;;;;;;;18.14;90.57;100458.81;5100343;28;20130;-51
2022/04/21 11:10:42;;;;;;;4.30;1.65;;;;;;;18.24;91.84;100461.69;5080360;28;20034;-55
2022/04/21 11:13:11;;;;;;;5.70;1.65;;;;;;;18.24;92.04;100445.56;5097890;28;20046;-52
2022/04/21 11:15:49;;;;;;;5.75;1.58;;;;;;;18.28;91.14;100444.03;5077941;28;20027;-56
2022/04/21 11:18:21;;;;;;;3.05;1.77;;;;;;;18.41;88.88;100449.09;5093405;28;20020;-54
2022/04/21 11:20:48;;;;;;;7.82;2.40;;;;;;;18.65;89.33;100446.25;5098017;28;20104;-51
2022/04/21 11:23:24;;;;;;;4.47;2.03;;;;;;;18.53;88.75;100438.25;5097541;28;20070;-51
2022/04/21 11:25:51;;;;;;;9.68;2.58;;;;;;;18.60;87.24;100432.75;5097028;28;20035;-54
2022/04/21 11:28:24;;;;;;;5.85;2.28;;;;;;;18.31;91.26;100441.69;5092771;28;20043;-52
2022/04/21 11:30:55;;;;;;;4.25;2.20;;;;;;;18.02;91.07;100440.09;5094122;28;20381;-52
2022/04/21 11:33:21;;;;;;;5.03;2.10;;;;;;;17.76;93.90;100438.78;5096473;28;20058;-53
2022/04/21 11:35:48;;;;;;;3.25;2.30;;;;;;;17.82;90.28;100438.66;5094221;28;20108;-47
2022/04/21 11:38:13;;;;;;;2.95;1.83;;;;;;;17.91;91.43;100436.41;5097343;28;20023;-49
2022/04/21 11:40:40;;;;;;;2.83;1.52;;;;;;;18.33;96.00;100437.94;5088586;28;20035;-52
2022/04/21 11:43:11;;;;;;;4.32;2.30;;;;;;;18.56;92.56;100434.28;5094822;28;20422;-46
2022/04/21 11:45:40;;;;;;;2.22;2.05;;;;;;;18.49;92.82;100431.78;5090189;28;20031;-48
2022/04/21 11:48:14;;;;;;;7.07;2.10;;;;;;;18.51;91.91;100418.91;5099182;28;20067;-50
2022/04/21 11:50:44;;;;;;;2.78;2.03;;;;;;;18.88;93.23;100424.59;5091652;28;20120;-48
2022/04/21 11:53:18;;;;;;;2.38;1.83;;;;;;;19.21;89.96;100417.50;5094238;28;20038;-49
2022/04/21 11:55:45;;;;;;;3.00;2.00;;;;;;;19.37;95.39;100413.13;5097701;28;20070;-56
2022/04/21 11:58:10;;;;;;;2.45;2.05;;;;;;;19.51;93.82;100424.31;5089288;28;20028;-49
2022/04/21 12:08:49;;;;;;;4.53;2.83;;;;;;;19.37;85.93;100416.63;5099450;28;20042;-49
2022/04/21 12:11:17;;;;;;;9.07;3.65;;;;;;;19.37;85.35;100411.25;5100713;28;20031;-52
2022/04/21 12:13:47;;;;;;;5.03;2.90;;;;;;;19.43;81.02;100420.19;5096761;28;20115;-55
2022/04/21 12:16:36;;;;;;;4.68;3.17;;;;;;;19.13;83.01;100415.25;5102870;28;20374;-46
2022/04/21 12:19:18;;;;;;;5.20;2.45;;;;;;;19.19;86.94;100408.88;5089589;28;20567;-54
2022/04/21 12:22:07;;;;;;;4.95;2.58;;;;;;;18.99;84.99;100404.03;5093872;28;20043;-51